Time;durP1;ratioP1;P1;durP2;ratioP2;P2;SDS_P1;SDS_P2;PMS_P1;PMS_P2;Temp;Humidity;BMP_temperature;BMP_pressure;BME280_temperature;BME280_humidity;BME280_pressure;Samples;Min_cycle;Max_cycle;Signal;HPM_P1;HPM_P2
2022/09/14 00:00:42;;;;;;;7.30;4.00;;;22.70;71.50;;;;;;220533;1265;25335;-49
2022/09/14 00:06:10;;;;;;;5.80;4.20;;;22.70;71.70;;;;;;220972;1265;24276;-53
2022/09/14 00:11:14;;;;;;;6.30;3.60;;;22.80;71.30;;;;;;220873;1265;24076;-50
2022/09/14 00:16:24;;;;;;;6.00;3.80;;;22.80;71.60;;;;;;220931;1265;22533;-51
2022/09/14 00:21:29;;;;;;;5.30;3.90;;;22.80;71.10;;;;;;221039;1265;22605;-51
2022/09/14 00:26:32;;;;;;;6.10;4.10;;;22.80;71.40;;;;;;221414;1265;22567;-50
2022/09/14 00:31:38;;;;;;;5.60;3.90;;;22.80;71.40;;;;;;221122;1265;22562;-51
2022/09/14 00:36:47;;;;;;;6.40;3.90;;;22.80;71.10;;;;;;221047;1265;22527;-51
2022/09/14 00:41:51;;;;;;;5.60;3.90;;;22.80;70.90;;;;;;221052;1265;22564;-48
2022/09/14 00:46:59;;;;;;;4.50;3.80;;;22.90;71.10;;;;;;221189;1265;25513;-50
2022/09/14 00:52:12;;;;;;;5.50;4.00;;;22.90;71.60;;;;;;221401;1265;22601;-50
2022/09/14 00:57:17;;;;;;;5.60;3.70;;;22.90;71.20;;;;;;221132;1264;22544;-49
2022/09/14 01:02:24;;;;;;;8.60;4.60;;;22.90;71.20;;;;;;221093;1265;22556;-49
2022/09/14 01:07:28;;;;;;;6.60;4.20;;;22.90;71.30;;;;;;221169;1265;22525;-52
2022/09/14 01:12:38;;;;;;;5.80;4.20;;;23.00;71.40;;;;;;220564;1265;23942;-49
2022/09/14 01:17:48;;;;;;;;;;;23.00;71.80;;;;;;219552;1265;2104031;-50
2022/09/14 01:23:07;;;;;;;5.40;4.40;;;23.00;71.50;;;;;;220987;1265;22531;-51
2022/09/14 01:28:42;;;;;;;7.20;4.20;;;23.00;71.70;;;;;;221009;1265;22627;-50
2022/09/14 01:33:56;;;;;;;5.70;4.40;;;23.00;71.90;;;;;;221224;1265;22525;-49
2022/09/14 01:39:01;;;;;;;5.40;4.20;;;23.00;71.70;;;;;;221014;1265;22682;-49
2022/09/14 01:44:13;;;;;;;5.80;4.30;;;23.00;71.80;;;;;;221252;1265;22526;-50
2022/09/14 01:49:47;;;;;;;5.10;4.10;;;23.00;71.80;;;;;;221002;1265;22538;-53
2022/09/14 01:55:19;;;;;;;7.00;4.50;;;23.10;71.90;;;;;;221332;1265;22649;-52
2022/09/14 02:00:23;;;;;;;4.70;4.10;;;23.10;71.70;;;;;;220979;1265;22540;-52
2022/09/14 02:05:38;;;;;;;5.20;4.30;;;23.10;71.50;;;;;;221180;1265;24398;-50
2022/09/14 02:10:43;;;;;;;5.00;4.20;;;23.10;71.30;;;;;;221241;1265;22522;-52
2022/09/14 02:15:47;;;;;;;4.70;4.00;;;23.10;71.10;;;;;;220921;1265;26599;-50
2022/09/14 02:20:59;;;;;;;5.10;4.00;;;23.10;71.00;;;;;;220881;1265;24244;-48
2022/09/14 02:26:03;;;;;;;5.70;3.60;;;23.10;71.20;;;;;;220715;1265;24144;-51
2022/09/14 02:31:21;;;;;;;5.00;3.60;;;23.10;71.20;;;;;;220891;1265;24214;-50
2022/09/14 02:36:48;;;;;;;6.10;4.00;;;23.10;70.30;;;;;;221308;1265;25190;-49
2022/09/14 02:41:59;;;;;;;6.30;3.90;;;23.00;70.70;;;;;;220771;1265;24213;-49
2022/09/14 02:47:03;;;;;;;;;;;23.00;70.60;;;;;;221083;1265;23049;-50
2022/09/14 02:52:17;;;;;;;4.80;3.70;;;23.00;70.60;;;;;;221205;1265;25304;-52
2022/09/14 02:57:20;;;;;;;3.70;3.30;;;23.00;70.90;;;;;;221092;1265;22840;-51
2022/09/14 03:02:24;;;;;;;4.40;3.50;;;23.00;70.70;;;;;;221125;1265;22538;-52
2022/09/14 03:07:27;;;;;;;5.10;3.20;;;23.00;70.50;;;;;;221046;1265;22735;-48
2022/09/14 03:12:31;;;;;;;5.00;3.40;;;23.00;70.60;;;;;;220939;1266;22611;-50
2022/09/14 03:17:34;;;;;;;4.50;3.60;;;23.00;70.40;;;;;;220836;1265;22722;-49
2022/09/14 03:22:48;;;;;;;4.50;3.70;;;22.90;70.30;;;;;;220677;1264;22540;-51
2022/09/14 03:27:59;;;;;;;4.00;3.60;;;22.90;70.40;;;;;;220658;1265;22540;-47
2022/09/14 03:33:03;;;;;;;4.60;3.40;;;23.00;70.30;;;;;;220962;1265;25544;-49
2022/09/14 03:38:07;;;;;;;5.20;3.20;;;23.00;70.80;;;;;;220980;1265;24195;-54
2022/09/14 03:43:16;;;;;;;3.90;3.20;;;22.90;70.20;;;;;;221206;1265;22554;-52
2022/09/14 03:48:21;;;;;;;4.40;3.40;;;22.90;70.10;;;;;;220884;1267;22644;-48
2022/09/14 03:53:26;;;;;;;5.00;3.60;;;22.90;70.50;;;;;;221084;1265;25241;-49
2022/09/14 03:58:31;;;;;;;3.80;2.70;;;22.90;70.10;;;;;;220786;1265;22607;-51
2022/09/14 04:03:35;;;;;;;4.00;2.90;;;22.90;70.50;;;;;;220775;1265;23136;-53
2022/09/14 04:08:47;;;;;;;4.00;3.20;;;22.90;70.20;;;;;;220857;1265;22545;-48
2022/09/14 04:13:54;;;;;;;3.90;3.20;;;22.90;69.90;;;;;;220477;1265;25554;-50
2022/09/14 04:19:06;;;;;;;3.80;3.00;;;22.90;69.90;;;;;;220395;1265;22624;-52
2022/09/14 04:24:14;;;;;;;4.00;3.10;;;22.90;70.00;;;;;;220687;1265;24193;-50
2022/09/14 04:29:19;;;;;;;4.90;3.10;;;22.90;70.00;;;;;;220872;1265;22566;-50
2022/09/14 04:34:24;;;;;;;4.20;3.20;;;22.90;70.10;;;;;;220416;1265;24889;-51
2022/09/14 04:39:27;;;;;;;4.20;3.30;;;22.90;70.40;;;;;;220433;1265;24262;-50
2022/09/14 04:44:31;;;;;;;3.90;2.80;;;22.80;70.00;;;;;;220894;1268;23018;-49
2022/09/14 04:49:34;;;;;;;3.90;2.90;;;22.90;69.70;;;;;;221017;1268;25470;-48
2022/09/14 04:54:38;;;;;;;3.80;3.00;;;22.80;70.50;;;;;;221106;1265;22640;-54
2022/09/14 04:59:42;;;;;;;3.30;2.80;;;22.80;70.20;;;;;;220653;1265;25247;-50
2022/09/14 05:04:45;;;;;;;3.60;2.70;;;22.90;70.10;;;;;;221062;1265;22609;-52
2022/09/14 05:09:49;;;;;;;5.30;3.00;;;22.80;70.30;;;;;;220618;1265;24293;-51
2022/09/14 05:14:52;;;;;;;4.90;3.10;;;22.90;70.50;;;;;;220885;1265;22529;-51
2022/09/14 05:19:57;;;;;;;4.00;2.80;;;22.80;70.70;;;;;;220850;1265;22544;-51
2022/09/14 05:25:02;;;;;;;5.20;3.20;;;22.90;71.00;;;;;;220972;1265;22550;-53
2022/09/14 05:30:07;;;;;;;6.70;3.30;;;22.90;71.10;;;;;;220799;1268;22524;-50
2022/09/14 05:35:10;;;;;;;6.60;2.90;;;22.90;71.30;;;;;;220800;1265;24339;-51
2022/09/14 05:40:14;;;;;;;5.40;3.10;;;22.80;71.50;;;;;;221090;1266;22525;-49
2022/09/14 05:45:17;;;;;;;5.90;2.90;;;22.90;71.30;;;;;;220352;1265;25997;-51
2022/09/14 05:50:22;;;;;;;3.60;2.70;;;22.90;71.10;;;;;;220990;1267;22531;-51
2022/09/14 05:55:26;;;;;;;4.50;2.70;;;22.90;71.30;;;;;;221061;1265;25343;-57
2022/09/14 06:00:30;;;;;;;7.00;3.40;;;22.90;71.70;;;;;;220641;1266;22585;-51
2022/09/14 06:05:35;;;;;;;5.80;2.80;;;23.00;71.80;;;;;;220395;1266;22576;-51
2022/09/14 06:10:39;;;;;;;5.90;3.00;;;23.00;71.10;;;;;;221103;1265;22597;-52
2022/09/14 06:15:43;;;;;;;10.90;2.70;;;23.00;71.40;;;;;;220882;1265;22547;-49
2022/09/14 06:20:51;;;;;;;6.20;3.10;;;23.00;71.30;;;;;;220940;1265;24302;-54
2022/09/14 06:25:55;;;;;;;18.00;3.10;;;23.00;71.10;;;;;;220571;1265;25229;-50
2022/09/14 06:31:02;;;;;;;7.60;3.10;;;23.00;71.30;;;;;;220579;1265;22550;-50
2022/09/14 06:36:11;;;;;;;5.80;2.50;;;23.00;71.10;;;;;;220518;1265;25464;-48
2022/09/14 06:41:17;;;;;;;16.20;3.40;;;23.00;70.90;;;;;;221078;1268;23949;-48
2022/09/14 06:46:24;;;;;;;5.40;3.40;;;23.00;70.70;;;;;;220850;1268;22627;-48
2022/09/14 06:51:28;;;;;;;5.40;3.20;;;23.00;70.50;;;;;;220906;1265;25532;-50
2022/09/14 06:56:35;;;;;;;7.90;3.20;;;23.10;70.40;;;;;;221097;1268;26849;-50
2022/09/14 07:01:39;;;;;;;10.20;3.20;;;23.10;70.50;;;;;;220507;1265;25529;-51
2022/09/14 07:06:48;;;;;;;8.40;3.50;;;23.00;70.00;;;;;;221100;1268;25528;-52
2022/09/14 07:11:53;;;;;;;6.20;3.20;;;23.00;70.60;;;;;;220782;1265;22542;-50
2022/09/14 07:16:56;;;;;;;6.90;3.50;;;22.90;70.40;;;;;;220833;1268;25535;-50
2022/09/14 07:22:01;;;;;;;5.30;3.10;;;23.00;70.20;;;;;;221057;1265;22808;-50
2022/09/14 07:27:04;;;;;;;5.00;2.90;;;23.00;70.60;;;;;;220895;1265;25501;-51
2022/09/14 07:32:08;;;;;;;6.60;3.20;;;23.00;70.10;;;;;;220855;1265;24363;-50
2022/09/14 07:37:11;;;;;;;5.50;2.70;;;23.00;70.10;;;;;;220812;1265;22557;-50
2022/09/14 07:42:18;;;;;;;4.20;2.70;;;23.00;70.10;;;;;;221053;1265;22527;-53
2022/09/14 07:47:22;;;;;;;3.60;2.90;;;22.90;69.90;;;;;;220661;1268;24277;-50
2022/09/14 07:52:26;;;;;;;4.70;2.80;;;23.00;70.00;;;;;;220939;1266;22633;-50
2022/09/14 07:57:29;;;;;;;5.60;2.90;;;23.00;69.90;;;;;;220802;1267;22569;-54
2022/09/14 08:02:54;;;;;;;3.10;2.50;;;23.00;69.70;;;;;;220612;1265;22720;-50
2022/09/14 08:07:58;;;;;;;4.20;3.00;;;23.00;69.70;;;;;;220858;1265;22524;-53
2022/09/14 08:13:02;;;;;;;4.90;2.60;;;23.00;69.60;;;;;;220761;1265;23941;-49
2022/09/14 08:18:06;;;;;;;6.00;2.70;;;23.00;69.80;;;;;;220621;1265;22538;-49
2022/09/14 08:23:10;;;;;;;4.00;2.90;;;23.00;69.40;;;;;;220540;1268;22733;-53
2022/09/14 08:28:14;;;;;;;4.30;3.00;;;23.00;69.40;;;;;;220900;1265;22551;-50
2022/09/14 08:33:17;;;;;;;3.50;2.60;;;23.00;69.30;;;;;;220635;1265;22551;-50
2022/09/14 08:38:21;;;;;;;3.80;2.40;;;23.00;69.20;;;;;;220520;1270;25356;-51
2022/09/14 08:43:26;;;;;;;3.80;2.60;;;23.00;69.40;;;;;;220479;1265;22540;-52
2022/09/14 08:48:34;;;;;;;3.30;2.60;;;23.10;69.10;;;;;;220372;1265;24251;-52
2022/09/14 08:53:40;;;;;;;4.00;2.50;;;23.10;69.20;;;;;;220830;1265;26559;-50
2022/09/14 08:59:09;;;;;;;3.50;2.40;;;23.10;68.50;;;;;;220672;1264;24212;-50
2022/09/14 09:04:38;;;;;;;3.30;2.50;;;23.10;68.80;;;;;;220669;1265;22702;-50
2022/09/14 09:09:49;;;;;;;4.70;2.30;;;23.10;68.80;;;;;;220699;1265;23518;-52
2022/09/14 09:14:56;;;;;;;4.40;3.00;;;23.20;68.70;;;;;;220925;1265;22594;-49
2022/09/14 09:20:22;;;;;;;3.80;2.50;;;23.20;68.90;;;;;;220570;1265;24268;-49
2022/09/14 09:25:41;;;;;;;3.90;2.40;;;23.20;69.00;;;;;;220978;1265;23895;-49
2022/09/14 09:30:45;;;;;;;5.60;2.80;;;23.10;69.40;;;;;;220862;1265;22550;-48
2022/09/14 09:35:50;;;;;;;4.30;2.60;;;23.10;69.10;;;;;;220487;1265;22749;-50
2022/09/14 09:41:04;;;;;;;3.10;2.30;;;23.20;69.40;;;;;;220980;1267;25306;-48
2022/09/14 09:46:10;;;;;;;3.30;2.40;;;23.10;69.20;;;;;;221192;1265;22546;-48
2022/09/14 09:51:32;;;;;;;3.10;2.20;;;23.20;68.80;;;;;;220875;1268;24258;-49
2022/09/14 09:56:39;;;;;;;4.40;2.30;;;23.20;68.80;;;;;;220940;1265;24259;-51
2022/09/14 10:01:47;;;;;;;3.60;2.60;;;23.20;68.60;;;;;;220897;1268;25413;-49
2022/09/14 10:06:53;;;;;;;4.00;2.40;;;23.20;68.90;;;;;;221046;1265;24466;-45
2022/09/14 10:12:01;;;;;;;7.60;3.00;;;23.20;68.60;;;;;;220611;1265;23938;-49
2022/09/14 10:17:21;;;;;;;6.10;2.70;;;23.20;68.80;;;;;;220719;1268;22545;-51
2022/09/14 10:22:30;;;;;;;4.50;2.60;;;23.20;68.40;;;;;;221051;1268;22506;-49
2022/09/14 10:27:41;;;;;;;5.00;2.80;;;23.20;68.20;;;;;;220598;1265;23166;-46
2022/09/14 10:32:54;;;;;;;6.10;2.90;;;23.20;67.90;;;;;;220996;1265;25244;-50
2022/09/14 10:38:14;;;;;;;3.10;2.60;;;23.20;68.00;;;;;;220700;1265;24283;-49
2022/09/14 10:43:48;;;;;;;4.90;2.80;;;23.20;67.80;;;;;;220665;1265;25209;-47
2022/09/14 10:49:23;;;;;;;4.30;3.00;;;23.20;67.80;;;;;;220753;1265;25474;-49
2022/09/14 10:54:47;;;;;;;6.00;2.80;;;23.20;67.80;;;;;;220708;1268;24250;-46
2022/09/14 11:00:09;;;;;;;4.30;2.90;;;23.20;68.10;;;;;;220819;1265;25229;-50
2022/09/14 11:05:23;;;;;;;5.70;2.90;;;23.20;67.50;;;;;;220721;1265;24715;-49
2022/09/14 11:10:42;;;;;;;4.70;2.50;;;23.20;67.20;;;;;;220433;1265;22528;-49
2022/09/14 11:15:52;;;;;;;4.50;2.70;;;23.20;67.00;;;;;;220673;1268;25447;-47
2022/09/14 11:21:22;;;;;;;6.60;2.80;;;23.20;67.30;;;;;;220671;1265;22546;-48
2022/09/14 11:26:35;;;;;;;5.00;3.20;;;23.20;66.80;;;;;;220089;1270;24861;-48
2022/09/14 11:31:49;;;;;;;4.40;2.60;;;23.20;67.10;;;;;;220796;1265;24253;-47
2022/09/14 11:37:19;;;;;;;4.00;2.60;;;23.20;67.10;;;;;;220462;1265;24415;-49
2022/09/14 11:42:31;;;;;;;4.50;2.80;;;23.20;67.10;;;;;;220640;1268;22544;-50
2022/09/14 11:47:42;;;;;;;8.10;3.10;;;23.20;67.20;;;;;;221074;1265;24281;-49
2022/09/14 11:52:54;;;;;;;5.20;2.80;;;23.30;66.90;;;;;;220839;1265;22524;-49
2022/09/14 11:58:12;;;;;;;4.30;2.50;;;23.30;66.70;;;;;;220607;1265;24215;-52
2022/09/14 12:03:19;;;;;;;6.60;3.20;;;23.30;67.20;;;;;;220313;1265;22712;-51
2022/09/14 12:08:25;;;;;;;4.60;2.70;;;23.30;66.40;;;;;;220818;1265;23972;-53
2022/09/14 12:13:33;;;;;;;5.00;2.80;;;23.30;66.70;;;;;;220749;1265;24286;-53
2022/09/14 12:18:41;;;;;;;5.90;3.00;;;23.30;66.50;;;;;;221050;1265;24405;-56
2022/09/14 12:23:50;;;;;;;4.20;2.50;;;23.30;66.50;;;;;;222066;1265;23907;-56
2022/09/14 12:29:01;;;;;;;4.00;2.70;;;23.30;66.90;;;;;;220668;1268;24215;-52
2022/09/14 12:34:20;;;;;;;7.30;2.80;;;23.30;66.80;;;;;;220691;1265;24838;-58
2022/09/14 12:39:29;;;;;;;4.00;2.50;;;23.30;66.90;;;;;;220655;1265;23863;-56
2022/09/14 12:44:40;;;;;;;5.30;3.00;;;23.30;66.80;;;;;;220764;1265;24218;-53
2022/09/14 12:49:44;;;;;;;4.20;2.90;;;23.40;66.70;;;;;;220828;1265;22541;-52
2022/09/14 12:55:12;;;;;;;3.80;2.70;;;23.30;67.10;;;;;;221175;1265;25353;-50
2022/09/14 13:00:21;;;;;;;6.30;3.10;;;23.40;66.80;;;;;;220595;1265;24212;-54
2022/09/14 13:05:32;;;;;;;4.30;2.70;;;23.40;66.90;;;;;;220545;1265;24320;-57
2022/09/14 13:10:38;;;;;;;4.80;3.00;;;23.40;67.10;;;;;;220715;1265;25589;-56
2022/09/14 13:15:55;;;;;;;4.80;2.80;;;23.40;67.10;;;;;;220564;1265;25424;-53
2022/09/14 13:21:03;;;;;;;5.00;2.60;;;23.40;67.10;;;;;;219110;1268;1790138;-54
2022/09/14 13:26:11;;;;;;;7.40;3.20;;;23.40;67.20;;;;;;220837;1268;26702;-58
2022/09/14 13:31:54;;;;;;;4.70;2.70;;;23.40;67.10;;;;;;220931;1265;23907;-52
2022/09/14 13:37:13;;;;;;;3.60;2.60;;;23.40;67.40;;;;;;220313;1265;22522;-49
2022/09/14 13:42:20;;;;;;;4.40;2.50;;;23.40;67.10;;;;;;220728;1265;23048;-51
2022/09/14 13:47:26;;;;;;;13.00;3.50;;;23.40;67.10;;;;;;220551;1265;22546;-53
2022/09/14 13:52:37;;;;;;;5.40;2.80;;;23.40;67.00;;;;;;221284;1265;22540;-52
2022/09/14 13:58:06;;;;;;;4.00;2.90;;;23.40;67.20;;;;;;220335;1265;22545;-53
2022/09/14 14:03:29;;;;;;;5.30;2.70;;;23.40;67.20;;;;;;220586;1265;22572;-57
2022/09/14 14:08:37;;;;;;;4.40;2.90;;;23.40;67.80;;;;;;220695;1265;22820;-50
2022/09/14 14:13:45;;;;;;;4.70;2.80;;;23.40;67.20;;;;;;220378;1265;24325;-52
2022/09/14 14:18:56;;;;;;;5.40;3.30;;;23.40;67.20;;;;;;220469;1265;22557;-51
2022/09/14 14:24:26;;;;;;;10.40;4.70;;;23.30;67.10;;;;;;220777;1264;25688;-51
2022/09/14 14:29:34;;;;;;;6.40;4.90;;;23.20;67.10;;;;;;220167;1265;25362;-54
2022/09/14 14:34:41;;;;;;;8.00;5.00;;;23.10;67.40;;;;;;220557;1265;22820;-49
2022/09/14 14:39:48;;;;;;;5.90;4.60;;;23.10;67.10;;;;;;220517;1265;22556;-54
2022/09/14 14:44:53;;;;;;;5.90;4.70;;;23.10;66.90;;;;;;220527;1265;25595;-53
2022/09/14 14:50:05;;;;;;;6.20;4.50;;;23.10;67.10;;;;;;220701;1265;22538;-51
2022/09/14 14:55:27;;;;;;;12.10;5.40;;;23.00;67.10;;;;;;221091;1264;25349;-53
2022/09/14 15:00:45;;;;;;;10.40;5.10;;;23.00;67.20;;;;;;220759;1265;25307;-55
2022/09/14 15:06:22;;;;;;;7.00;5.00;;;23.10;68.10;;;;;;220011;1265;24276;-55
2022/09/14 15:11:41;;;;;;;8.50;4.90;;;23.00;67.50;;;;;;228335;1264;22388;-53
2022/09/14 15:17:06;;;;;;;7.50;4.70;;;23.00;67.50;;;;;;224362;1265;24367;-56
2022/09/14 15:22:36;;;;;;;7.90;5.20;;;23.10;67.60;;;;;;228052;1265;23137;-56
2022/09/14 15:28:21;;;;;;;12.00;6.20;;;23.20;70.00;;;;;;228402;1265;23339;-57
2022/09/14 15:33:38;;;;;;;14.50;5.70;;;23.20;69.60;;;;;;228601;1263;22593;-55
2022/09/14 15:38:46;;;;;;;13.90;7.90;;;23.20;68.90;;;;;;222738;1262;24202;-49
2022/09/14 15:43:53;;;;;;;12.00;6.40;;;23.30;70.40;;;;;;220597;1265;24205;-50
2022/09/14 15:49:18;;;;;;;11.50;5.90;;;23.50;71.90;;;;;;221226;1265;25603;-52
2022/09/14 15:54:30;;;;;;;9.00;5.30;;;23.50;71.20;;;;;;220558;1265;23091;-48
2022/09/14 15:59:34;;;;;;;13.30;5.50;;;23.50;70.70;;;;;;220979;1265;22547;-51
2022/09/14 16:04:41;;;;;;;13.80;5.70;;;23.50;70.30;;;;;;220531;1264;22551;-51
2022/09/14 16:09:45;;;;;;;7.80;5.70;;;23.50;70.70;;;;;;220614;1265;22554;-50
2022/09/14 16:15:01;;;;;;;9.50;5.30;;;23.50;71.20;;;;;;222090;1265;22563;-49
2022/09/14 16:20:10;;;;;;;12.60;5.70;;;23.40;71.60;;;;;;220654;1265;23856;-49
2022/09/14 16:25:15;;;;;;;7.70;5.20;;;23.40;70.60;;;;;;220835;1265;24244;-47
2022/09/14 16:30:22;;;;;;;15.70;4.80;;;23.50;71.20;;;;;;220915;1265;24192;-47
2022/09/14 16:35:26;;;;;;;14.10;5.70;;;23.50;71.20;;;;;;220784;1265;24163;-51
2022/09/14 16:40:32;;;;;;;12.30;4.90;;;23.50;71.00;;;;;;220890;1265;24301;-48
2022/09/14 16:46:18;;;;;;;11.20;4.80;;;23.50;70.90;;;;;;221017;1265;24247;-49
2022/09/14 16:51:37;;;;;;;11.60;5.20;;;23.50;71.30;;;;;;220965;1265;24194;-47
2022/09/14 16:57:25;;;;;;;7.60;4.70;;;23.40;70.80;;;;;;220828;1265;22544;-49
2022/09/14 17:02:37;;;;;;;10.60;5.00;;;23.50;70.70;;;;;;221067;1265;22534;-50
2022/09/14 17:07:45;;;;;;;10.60;4.80;;;23.40;70.70;;;;;;220790;1265;25232;-48
2022/09/14 17:12:51;;;;;;;8.20;5.10;;;23.40;70.50;;;;;;220881;1265;24210;-50
2022/09/14 17:17:59;;;;;;;9.20;4.80;;;23.40;70.00;;;;;;221273;1265;25293;-49
2022/09/14 17:23:03;;;;;;;8.30;5.40;;;23.40;70.40;;;;;;220921;1265;22548;-48
2022/09/14 17:28:16;;;;;;;7.30;4.90;;;23.40;70.50;;;;;;221094;1262;23889;-45
2022/09/14 17:33:27;;;;;;;8.50;4.90;;;23.30;70.30;;;;;;220745;1265;22613;-49
2022/09/14 17:38:38;;;;;;;10.90;5.40;;;23.30;70.40;;;;;;220871;1264;22525;-47
2022/09/14 17:43:49;;;;;;;8.10;4.80;;;23.30;70.50;;;;;;220631;1265;22526;-50
2022/09/14 17:49:13;;;;;;;10.70;5.60;;;23.40;70.60;;;;;;220835;1265;23915;-51
2022/09/14 17:54:37;;;;;;;10.30;5.70;;;23.40;71.10;;;;;;220875;1265;23706;-48
2022/09/14 18:00:16;;;;;;;10.30;5.10;;;23.50;71.30;;;;;;220913;1265;23278;-49
2022/09/14 18:05:39;;;;;;;14.70;5.20;;;23.50;70.60;;;;;;220702;1263;24259;-46
2022/09/14 18:11:22;;;;;;;8.30;5.20;;;23.50;70.70;;;;;;220701;1265;25444;-50
2022/09/14 18:16:57;;;;;;;12.30;5.60;;;23.60;70.90;;;;;;220751;1265;22985;-49
2022/09/14 18:22:21;;;;;;;9.10;5.50;;;23.50;70.50;;;;;;220685;1265;22532;-48
2022/09/14 18:27:54;;;;;;;12.00;6.30;;;23.60;70.60;;;;;;220552;1265;24852;-47
2022/09/14 18:33:28;;;;;;;7.30;5.30;;;23.60;71.10;;;;;;220420;1265;24170;-47
2022/09/14 18:38:39;;;;;;;7.50;5.20;;;23.60;70.70;;;;;;220563;1265;23970;-50
2022/09/14 18:43:46;;;;;;;15.00;5.50;;;23.60;70.60;;;;;;220489;1265;22548;-47
2022/09/14 18:49:12;;;;;;;12.80;6.00;;;23.50;70.40;;;;;;220575;1265;25238;-53
2022/09/14 18:54:23;;;;;;;11.50;5.30;;;23.50;70.70;;;;;;220645;1265;22703;-49
2022/09/14 18:59:33;;;;;;;9.40;5.80;;;23.50;70.70;;;;;;220486;1265;23522;-50
2022/09/14 19:04:51;;;;;;;18.60;5.80;;;23.50;70.70;;;;;;220659;1265;25261;-48
2022/09/14 19:10:10;;;;;;;12.50;5.90;;;23.50;71.10;;;;;;220361;1265;23670;-47
2022/09/14 19:15:19;;;;;;;7.20;5.30;;;23.50;71.10;;;;;;220377;1265;25811;-50
2022/09/14 19:20:56;;;;;;;23.10;5.90;;;23.50;71.10;;;;;;220481;1265;25270;-49
2022/09/14 19:26:16;;;;;;;14.10;6.00;;;23.40;72.30;;;;;;220842;1265;25221;-48
2022/09/14 19:31:36;;;;;;;14.20;6.20;;;23.50;74.90;;;;;;220346;1265;24222;-48
2022/09/14 19:36:45;;;;;;;11.10;5.50;;;23.40;73.60;;;;;;220951;1265;22588;-53
2022/09/14 19:41:53;;;;;;;17.70;6.10;;;23.40;72.70;;;;;;220600;1265;22590;-48
2022/09/14 19:46:57;;;;;;;12.10;5.40;;;23.40;73.00;;;;;;220626;1264;22527;-48
2022/09/14 19:52:04;;;;;;;11.10;5.50;;;23.40;73.20;;;;;;220854;1265;24208;-50
2022/09/14 19:57:07;;;;;;;16.30;6.40;;;23.40;73.10;;;;;;220425;1265;25344;-48
2022/09/14 20:02:11;;;;;;;9.80;6.10;;;23.30;73.20;;;;;;220587;1265;24778;-46
2022/09/14 20:07:15;;;;;;;15.40;5.40;;;23.30;72.30;;;;;;220544;1265;22640;-47
2022/09/14 20:12:19;;;;;;;10.70;5.60;;;23.30;72.40;;;;;;221038;1265;25349;-46
2022/09/14 20:17:23;;;;;;;7.70;5.60;;;23.30;72.50;;;;;;220743;1265;24012;-48
2022/09/14 20:22:27;;;;;;;8.00;5.50;;;23.40;72.30;;;;;;220993;1265;22745;-47
2022/09/14 20:27:34;;;;;;;16.00;6.60;;;23.40;71.80;;;;;;220762;1265;24941;-47
2022/09/14 20:32:38;;;;;;;15.70;6.70;;;23.40;71.90;;;;;;220878;1265;24765;-50
2022/09/14 20:37:45;;;;;;;12.60;5.60;;;23.50;74.90;;;;;;221107;1264;25473;-47
2022/09/14 20:42:49;;;;;;;18.70;5.90;;;23.50;73.90;;;;;;220683;1265;23900;-49
2022/09/14 20:47:53;;;;;;;13.60;5.70;;;23.50;74.10;;;;;;220910;1265;24758;-49
2022/09/14 20:52:57;;;;;;;15.00;6.40;;;23.50;74.30;;;;;;220807;1265;24228;-49
2022/09/14 20:58:06;;;;;;;13.80;7.20;;;23.50;73.70;;;;;;220818;1265;24222;-52
2022/09/14 21:03:11;;;;;;;14.50;6.10;;;23.60;74.40;;;;;;220724;1265;22521;-54
2022/09/14 21:08:15;;;;;;;12.10;6.30;;;23.60;76.50;;;;;;220746;1265;23144;-47
2022/09/14 21:13:21;;;;;;;15.60;6.90;;;23.60;76.90;;;;;;220857;1265;25237;-49
2022/09/14 21:18:25;;;;;;;13.50;6.30;;;23.60;76.90;;;;;;220937;1265;25060;-48
2022/09/14 21:23:30;;;;;;;10.70;5.90;;;23.60;76.10;;;;;;220873;1265;22529;-48
2022/09/14 21:28:35;;;;;;;11.70;6.20;;;23.60;75.70;;;;;;220871;1265;22654;-48
2022/09/14 21:33:41;;;;;;;12.40;5.80;;;23.60;75.60;;;;;;221140;1265;24207;-46
2022/09/14 21:38:55;;;;;;;11.20;5.90;;;23.60;75.50;;;;;;221304;1265;25368;-50
2022/09/14 21:43:59;;;;;;;14.10;5.80;;;23.60;75.80;;;;;;220860;1265;25229;-48
2022/09/14 21:49:03;;;;;;;8.90;5.40;;;23.60;75.00;;;;;;221480;1265;25556;-49
2022/09/14 21:54:11;;;;;;;9.00;5.20;;;23.60;75.00;;;;;;221074;1265;25297;-49
2022/09/14 21:59:19;;;;;;;8.50;5.30;;;23.60;75.10;;;;;;220767;1265;24265;-48
2022/09/14 22:04:24;;;;;;;8.80;5.80;;;23.60;75.20;;;;;;220950;1265;22589;-48
2022/09/14 22:09:27;;;;;;;11.70;5.60;;;23.60;74.50;;;;;;220799;1265;24330;-51
2022/09/14 22:14:32;;;;;;;7.40;4.90;;;23.60;74.40;;;;;;220517;1265;22561;-49
2022/09/14 22:19:38;;;;;;;6.90;5.20;;;23.60;74.30;;;;;;220751;1265;25263;-51
2022/09/14 22:24:42;;;;;;;9.60;5.00;;;23.60;74.20;;;;;;223468;1265;24278;-47
2022/09/14 22:29:46;;;;;;;9.40;5.70;;;23.60;74.40;;;;;;221045;1265;22528;-49
2022/09/14 22:34:50;;;;;;;17.60;6.10;;;23.60;74.40;;;;;;221096;1265;22524;-52
2022/09/14 22:39:59;;;;;;;12.40;6.10;;;23.60;75.60;;;;;;220969;1265;24198;-52
2022/09/14 22:45:04;;;;;;;14.00;6.40;;;23.60;76.90;;;;;;220860;1265;22525;-48
2022/09/14 22:50:08;;;;;;;10.60;5.70;;;23.50;75.90;;;;;;220882;1265;23941;-47
2022/09/14 22:55:14;;;;;;;11.10;6.20;;;23.60;75.60;;;;;;220890;1265;22527;-47
2022/09/14 23:00:17;;;;;;;10.70;5.70;;;23.50;75.40;;;;;;220860;1265;24821;-52
2022/09/14 23:05:21;;;;;;;13.50;5.70;;;23.50;75.60;;;;;;220730;1265;22589;-47
2022/09/14 23:10:28;;;;;;;9.60;5.80;;;23.50;75.70;;;;;;220621;1265;22522;-49
2022/09/14 23:15:37;;;;;;;8.60;5.30;;;23.50;76.50;;;;;;220412;1265;23150;-48
2022/09/14 23:20:42;;;;;;;8.80;5.20;;;23.50;76.30;;;;;;220796;1265;24241;-50
2022/09/14 23:25:46;;;;;;;8.50;5.10;;;23.50;76.50;;;;;;220596;1265;22594;-48
2022/09/14 23:30:52;;;;;;;10.00;5.60;;;23.50;76.20;;;;;;222038;1265;24905;-49
2022/09/14 23:35:56;;;;;;;8.80;4.90;;;23.50;76.20;;;;;;221773;1265;24051;-49
2022/09/14 23:41:00;;;;;;;7.80;5.30;;;23.50;76.40;;;;;;221924;1265;25274;-47
2022/09/14 23:46:04;;;;;;;9.20;4.60;;;23.50;76.10;;;;;;220924;1265;22691;-50
2022/09/14 23:51:12;;;;;;;9.50;4.80;;;23.50;75.90;;;;;;220373;1265;24221;-50
2022/09/14 23:56:16;;;;;;;10.40;4.70;;;23.40;75.10;;;;;;220879;1265;23902;-50
